Time;durP1;ratioP1;P1;durP2;ratioP2;P2;SDS_P1;SDS_P2;PMS_P1;PMS_P2;Temp;Humidity;BMP_temperature;BMP_pressure;BME280_temperature;BME280_humidity;BME280_pressure;Samples;Min_cycle;Max_cycle;Signal;HPM_P1;HPM_P2
2022/10/21 00:00:00;;;;;;;105.47;52.85;;;5.10;99.90;;;;;;5094173;28;20466;-65
2022/10/21 00:02:26;;;;;;;114.85;56.63;;;5.10;99.90;;;;;;5093989;28;20061;-65
2022/10/21 00:04:52;;;;;;;122.40;57.83;;;5.00;99.90;;;;;;5094143;28;20031;-65
2022/10/21 00:07:18;;;;;;;112.78;56.42;;;5.00;99.90;;;;;;5093805;28;20211;-65
2022/10/21 00:09:44;;;;;;;120.70;57.28;;;5.10;99.90;;;;;;5094108;28;20082;-65
2022/10/21 00:12:09;;;;;;;122.45;57.13;;;5.10;99.90;;;;;;5093892;28;20033;-65
2022/10/21 00:14:35;;;;;;;116.03;59.15;;;5.00;99.90;;;;;;5094171;28;20032;-65
2022/10/21 00:17:01;;;;;;;111.43;56.97;;;5.00;99.90;;;;;;5094155;28;20111;-65
2022/10/21 00:19:27;;;;;;;123.68;60.38;;;5.00;99.90;;;;;;5095223;28;20039;-65
2022/10/21 00:21:53;;;;;;;138.15;63.75;;;5.00;99.90;;;;;;5097799;28;20024;-65
2022/10/21 00:24:19;;;;;;;142.73;65.50;;;5.00;99.90;;;;;;5097938;28;20047;-65
2022/10/21 00:26:44;;;;;;;136.93;61.47;;;5.00;99.90;;;;;;5097625;28;20024;-65
2022/10/21 00:29:10;;;;;;;127.75;59.75;;;5.00;99.90;;;;;;5097737;28;20111;-65
2022/10/21 00:31:36;;;;;;;115.15;54.90;;;5.00;99.90;;;;;;5097631;28;20012;-65
2022/10/21 00:34:02;;;;;;;109.82;53.13;;;5.10;99.90;;;;;;5097481;28;20483;-65
2022/10/21 00:36:28;;;;;;;103.63;52.10;;;5.00;99.90;;;;;;5097593;28;20028;-65
2022/10/21 00:38:55;;;;;;;96.72;47.05;;;5.00;99.90;;;;;;5097834;28;20101;-65
2022/10/21 00:41:21;;;;;;;94.68;46.90;;;5.00;99.90;;;;;;5097567;28;20099;-65
2022/10/21 00:44:01;;;;;;;93.22;46.70;;;4.90;99.90;;;;;;5097609;28;20441;-65
2022/10/21 00:46:39;;;;;;;88.47;46.35;;;4.90;99.90;;;;;;5097228;28;20028;-65
2022/10/21 00:49:14;;;;;;;99.00;47.65;;;4.80;99.90;;;;;;5097239;28;20024;-65
2022/10/21 00:51:40;;;;;;;100.65;48.58;;;4.70;99.90;;;;;;5079442;28;20024;-65
2022/10/21 00:54:07;;;;;;;116.85;53.83;;;4.60;99.90;;;;;;5097377;28;20042;-65
2022/10/21 00:56:34;;;;;;;114.15;57.45;;;4.70;99.90;;;;;;5097148;28;20027;-65
2022/10/21 00:59:03;;;;;;;107.18;54.42;;;4.70;99.90;;;;;;5097215;28;20055;-65
2022/10/21 01:01:29;;;;;;;94.28;49.20;;;4.60;99.90;;;;;;5097119;28;20036;-65
2022/10/21 01:03:55;;;;;;;89.10;44.80;;;4.70;99.90;;;;;;5097100;28;20036;-65
2022/10/21 01:06:24;;;;;;;90.72;47.25;;;4.80;99.90;;;;;;5096855;28;20055;-65
2022/10/21 01:08:53;;;;;;;88.18;43.50;;;4.80;99.90;;;;;;5096964;28;20016;-65
2022/10/21 01:11:20;;;;;;;81.90;43.92;;;4.60;99.90;;;;;;5096920;28;20055;-65
2022/10/21 01:14:14;;;;;;;88.70;46.08;;;4.60;99.90;;;;;;5097058;28;20024;-65
2022/10/21 01:16:46;;;;;;;90.68;45.17;;;4.70;99.90;;;;;;5096887;28;20032;-65
2022/10/21 01:19:30;;;;;;;88.15;45.20;;;4.60;99.90;;;;;;5096805;28;20382;-65
2022/10/21 01:22:40;;;;;;;84.95;44.63;;;4.50;99.90;;;;;;5096720;28;20103;-65
2022/10/21 01:25:17;;;;;;;85.22;43.10;;;4.30;99.90;;;;;;5049158;28;20047;-65
2022/10/21 01:28:07;;;;;;;84.40;44.22;;;4.40;99.90;;;;;;5096753;28;20067;-65
2022/10/21 01:30:43;;;;;;;82.25;42.33;;;4.40;99.90;;;;;;5095828;28;20027;-65
2022/10/21 01:33:39;;;;;;;88.53;44.30;;;4.40;99.90;;;;;;5096408;28;20513;-65
2022/10/21 01:36:17;;;;;;;77.97;41.17;;;4.40;99.90;;;;;;5086756;28;20512;-65
2022/10/21 01:39:01;;;;;;;76.13;40.17;;;4.10;99.90;;;;;;5096504;28;20522;-65
2022/10/21 01:41:53;;;;;;;78.57;39.88;;;4.10;99.90;;;;;;5096520;28;20471;-65
2022/10/21 01:44:34;;;;;;;70.90;35.70;;;4.20;99.90;;;;;;5096232;28;20036;-65
2022/10/21 01:47:25;;;;;;;63.17;34.97;;;4.20;99.90;;;;;;5096207;28;20111;-65
2022/10/21 01:49:56;;;;;;;94.13;43.65;;;4.10;99.90;;;;;;5096356;28;20073;-65
2022/10/21 01:52:23;;;;;;;83.22;39.75;;;4.10;99.90;;;;;;5096105;28;20057;-65
2022/10/21 01:55:02;;;;;;;73.72;38.40;;;4.10;99.90;;;;;;5096103;28;20028;-65
2022/10/21 01:57:35;;;;;;;81.88;37.67;;;4.10;99.90;;;;;;5096242;28;20031;-65
2022/10/21 02:00:03;;;;;;;76.05;36.78;;;4.10;99.90;;;;;;5095988;28;20028;-65
2022/10/21 02:02:34;;;;;;;75.00;36.85;;;4.20;99.90;;;;;;5096173;28;20397;-65
2022/10/21 02:05:06;;;;;;;68.15;35.35;;;4.30;99.90;;;;;;5095856;28;20122;-65
2022/10/21 02:07:32;;;;;;;80.43;38.42;;;4.50;99.90;;;;;;5095779;28;20458;-65
2022/10/21 02:09:58;;;;;;;81.68;38.63;;;4.50;99.90;;;;;;5096117;28;20107;-65
2022/10/21 02:12:26;;;;;;;72.60;34.20;;;4.40;99.90;;;;;;5077580;28;20032;-65
2022/10/21 02:14:54;;;;;;;67.65;34.08;;;4.50;99.90;;;;;;5095722;28;20020;-65
2022/10/21 02:17:21;;;;;;;58.83;32.30;;;4.40;99.90;;;;;;5095719;28;20166;-65
2022/10/21 02:19:48;;;;;;;49.65;29.40;;;4.50;99.90;;;;;;5095586;28;20020;-65
2022/10/21 02:22:18;;;;;;;59.28;29.75;;;4.40;99.90;;;;;;5095438;28;20460;-65
2022/10/21 02:24:55;;;;;;;69.65;30.60;;;4.40;99.90;;;;;;5095703;28;20039;-65
2022/10/21 02:27:22;;;;;;;62.97;28.33;;;4.50;99.90;;;;;;5095518;28;20102;-65
2022/10/21 02:29:54;;;;;;;68.25;29.77;;;4.30;99.90;;;;;;5095533;28;20466;-65
2022/10/21 02:32:25;;;;;;;82.20;33.80;;;4.20;99.90;;;;;;5095342;28;20032;-65
2022/10/21 02:35:16;;;;;;;88.72;37.83;;;4.20;99.90;;;;;;5095285;28;20020;-65
2022/10/21 02:38:04;;;;;;;89.57;39.20;;;4.30;99.90;;;;;;5095473;28;20020;-65
2022/10/21 02:41:01;;;;;;;90.93;38.08;;;4.00;99.90;;;;;;5095412;28;20049;-65
2022/10/21 02:43:38;;;;;;;76.05;35.97;;;4.00;99.90;;;;;;5094978;28;20028;-65
2022/10/21 02:46:10;;;;;;;71.55;31.73;;;3.90;99.90;;;;;;5094942;28;20051;-65
2022/10/21 02:48:38;;;;;;;65.55;30.15;;;3.90;99.90;;;;;;5095123;28;20024;-65
2022/10/21 02:51:06;;;;;;;65.32;31.00;;;3.90;99.90;;;;;;5095171;28;20035;-65
2022/10/21 02:53:33;;;;;;;66.97;29.83;;;3.90;99.90;;;;;;5095028;28;20020;-65
2022/10/21 02:55:59;;;;;;;72.18;33.70;;;3.90;99.90;;;;;;5094932;28;20075;-65
2022/10/21 02:58:25;;;;;;;76.78;32.08;;;4.00;99.90;;;;;;5094962;28;20028;-65
2022/10/21 03:00:51;;;;;;;84.03;37.55;;;4.10;99.90;;;;;;5094992;28;20118;-65
2022/10/21 03:03:17;;;;;;;74.55;34.40;;;4.00;99.90;;;;;;5094890;28;20191;-65
2022/10/21 03:05:43;;;;;;;70.53;31.17;;;3.80;99.90;;;;;;5094619;28;20051;-65
2022/10/21 03:08:09;;;;;;;78.38;33.90;;;3.90;99.90;;;;;;5094926;28;20028;-65
2022/10/21 03:10:35;;;;;;;94.03;35.40;;;4.00;99.90;;;;;;5094499;28;20024;-65
2022/10/21 03:13:01;;;;;;;73.65;33.08;;;4.00;99.90;;;;;;5094924;28;20107;-65
2022/10/21 03:15:27;;;;;;;66.88;30.95;;;3.80;99.90;;;;;;5094705;28;20036;-65
2022/10/21 03:17:52;;;;;;;143.73;50.70;;;3.80;99.90;;;;;;5094613;28;20063;-65
2022/10/21 03:20:19;;;;;;;116.32;42.65;;;3.80;99.90;;;;;;5094740;28;20032;-65
2022/10/21 03:22:44;;;;;;;100.25;39.83;;;3.80;99.90;;;;;;5094648;28;20386;-65
2022/10/21 03:25:11;;;;;;;91.88;38.00;;;3.90;99.90;;;;;;5094342;28;20024;-65
2022/10/21 03:27:38;;;;;;;95.57;36.08;;;3.90;99.90;;;;;;5094719;28;20378;-65
2022/10/21 03:30:05;;;;;;;79.63;36.08;;;3.90;99.90;;;;;;5094663;28;20028;-65
2022/10/21 03:32:32;;;;;;;70.85;31.17;;;3.90;99.90;;;;;;5094464;28;20316;-65
2022/10/21 03:34:57;;;;;;;72.32;33.45;;;4.00;99.90;;;;;;5094436;28;20105;-65
2022/10/21 03:37:23;;;;;;;94.80;38.13;;;4.10;99.90;;;;;;5094598;28;20032;-65
2022/10/21 03:39:49;;;;;;;85.82;36.30;;;4.20;99.90;;;;;;5094310;28;20028;-65
2022/10/21 03:42:15;;;;;;;78.45;34.20;;;4.20;99.90;;;;;;5094575;28;20115;-65
2022/10/21 03:44:41;;;;;;;64.05;31.25;;;4.00;99.90;;;;;;5094301;28;20035;-65
2022/10/21 03:47:07;;;;;;;79.72;30.92;;;4.00;99.90;;;;;;5094300;28;20020;-65
2022/10/21 03:49:34;;;;;;;58.95;24.23;;;3.90;99.90;;;;;;5094421;28;20344;-65
2022/10/21 03:52:00;;;;;;;61.70;27.35;;;3.90;99.90;;;;;;5094400;28;20024;-65
2022/10/21 03:54:26;;;;;;;92.68;28.98;;;4.10;99.90;;;;;;5095435;28;20086;-65
2022/10/21 03:56:52;;;;;;;164.68;41.03;;;3.90;99.90;;;;;;5098433;28;20060;-65
2022/10/21 03:59:18;;;;;;;156.65;36.60;;;4.00;99.90;;;;;;5098678;28;20083;-65
2022/10/21 04:01:44;;;;;;;142.27;36.97;;;4.00;99.90;;;;;;5098610;28;20042;-65
2022/10/21 04:04:09;;;;;;;150.35;39.10;;;4.00;99.90;;;;;;5098393;28;20035;-65
2022/10/21 04:06:35;;;;;;;258.92;50.25;;;4.00;99.90;;;;;;5097989;28;20128;-65
2022/10/21 04:09:02;;;;;;;147.02;42.58;;;4.00;99.90;;;;;;5098052;28;20467;-65
2022/10/21 04:11:28;;;;;;;156.75;45.05;;;4.00;99.90;;;;;;5098205;28;20020;-65
2022/10/21 04:13:54;;;;;;;140.95;43.85;;;4.00;99.90;;;;;;5098278;28;20626;-65
2022/10/21 04:16:21;;;;;;;135.10;42.90;;;4.10;99.90;;;;;;5098062;28;20476;-65
2022/10/21 04:18:48;;;;;;;144.38;42.90;;;4.00;99.90;;;;;;5098033;28;20036;-65
2022/10/21 04:21:14;;;;;;;134.35;40.22;;;4.10;99.90;;;;;;5077604;28;20054;-65
2022/10/21 04:23:40;;;;;;;110.90;38.20;;;4.10;99.90;;;;;;5077364;28;20033;-65
2022/10/21 04:26:07;;;;;;;114.95;38.58;;;3.90;99.90;;;;;;5077496;28;20481;-65
2022/10/21 04:28:33;;;;;;;102.38;35.80;;;3.70;99.90;;;;;;5077636;28;20040;-65
2022/10/21 04:30:59;;;;;;;100.82;33.80;;;3.60;99.90;;;;;;5079373;28;20473;-65
2022/10/21 04:33:25;;;;;;;74.18;31.02;;;3.50;99.90;;;;;;5097637;28;20060;-65
2022/10/21 04:35:53;;;;;;;75.55;31.98;;;3.40;99.90;;;;;;5097399;28;20123;-65
2022/10/21 04:38:20;;;;;;;74.30;31.80;;;3.30;99.90;;;;;;5097636;28;20535;-65
2022/10/21 04:40:46;;;;;;;69.45;29.05;;;3.30;99.90;;;;;;5097550;28;20092;-65
2022/10/21 04:43:11;;;;;;;66.03;28.80;;;3.30;99.90;;;;;;5097402;28;20032;-65
2022/10/21 04:45:38;;;;;;;62.17;27.55;;;3.20;99.90;;;;;;5097185;28;20031;-65
2022/10/21 04:48:05;;;;;;;59.22;27.63;;;3.20;99.90;;;;;;5097549;28;20020;-65
2022/10/21 04:50:33;;;;;;;56.15;27.25;;;3.30;99.90;;;;;;5079012;28;20036;-65
2022/10/21 04:52:59;;;;;;;59.53;28.95;;;3.30;99.90;;;;;;5097423;28;20032;-65
2022/10/21 04:55:25;;;;;;;54.75;28.00;;;3.40;99.90;;;;;;5097232;28;20044;-65
2022/10/21 04:57:51;;;;;;;58.60;28.10;;;3.40;99.90;;;;;;5096847;28;20024;-65
2022/10/21 05:00:17;;;;;;;61.67;32.00;;;3.30;99.90;;;;;;5097173;28;20093;-65
2022/10/21 05:02:43;;;;;;;69.78;34.10;;;3.20;99.90;;;;;;5097179;28;20389;-65
2022/10/21 05:05:09;;;;;;;68.05;32.47;;;3.20;99.90;;;;;;5095806;28;20062;-65
2022/10/21 05:07:35;;;;;;;66.35;32.92;;;3.20;99.90;;;;;;5089649;28;20031;-65
2022/10/21 05:10:01;;;;;;;75.18;33.90;;;3.10;99.90;;;;;;5090871;28;20028;-65
2022/10/21 05:12:27;;;;;;;101.28;44.67;;;3.10;99.90;;;;;;5092804;28;20365;-65
2022/10/21 05:14:52;;;;;;;106.57;48.53;;;3.20;99.90;;;;;;5097435;28;20548;-65
2022/10/21 05:17:18;;;;;;;79.78;38.97;;;3.10;99.90;;;;;;5096978;28;20069;-65
2022/10/21 05:19:44;;;;;;;87.38;39.55;;;3.20;99.90;;;;;;5096439;28;20031;-65
2022/10/21 05:22:11;;;;;;;86.63;38.22;;;3.20;99.90;;;;;;5096777;28;20081;-65
2022/10/21 05:24:37;;;;;;;78.85;38.30;;;3.20;99.90;;;;;;5096564;28;20020;-65
2022/10/21 05:27:03;;;;;;;93.07;42.53;;;3.30;99.90;;;;;;5096547;28;20381;-65
2022/10/21 05:29:29;;;;;;;103.18;45.63;;;3.50;99.90;;;;;;5095447;28;20043;-65
2022/10/21 05:31:54;;;;;;;94.97;43.53;;;3.60;99.90;;;;;;5089764;28;20029;-65
2022/10/21 05:34:20;;;;;;;99.30;43.08;;;4.10;99.90;;;;;;5083879;28;20369;-65
2022/10/21 05:36:48;;;;;;;100.25;40.45;;;4.80;99.90;;;;;;5083397;28;20052;-65
2022/10/21 05:39:14;;;;;;;92.50;38.70;;;5.30;99.90;;;;;;5095569;28;20060;-65
2022/10/21 05:41:40;;;;;;;96.57;39.13;;;5.90;99.90;;;;;;5092643;28;20107;-65
2022/10/21 05:44:06;;;;;;;91.60;37.58;;;6.20;99.90;;;;;;5093459;28;20020;-65
2022/10/21 05:46:33;;;;;;;84.63;35.45;;;6.40;99.90;;;;;;5087328;28;20371;-65
2022/10/21 05:48:58;;;;;;;77.38;33.13;;;6.60;99.90;;;;;;5084027;28;20021;-65
2022/10/21 05:51:25;;;;;;;77.65;33.13;;;7.10;99.90;;;;;;5094049;28;20093;-65
2022/10/21 05:53:52;;;;;;;78.68;32.80;;;7.60;99.90;;;;;;5094676;28;20055;-65
2022/10/21 05:56:18;;;;;;;76.85;33.42;;;8.00;99.90;;;;;;5095294;28;20061;-65
2022/10/21 05:58:44;;;;;;;76.68;35.17;;;8.10;99.90;;;;;;5095750;28;20036;-65
2022/10/21 06:01:10;;;;;;;77.75;36.00;;;8.40;99.90;;;;;;5095736;28;20024;-65
2022/10/21 06:03:36;;;;;;;70.50;34.42;;;8.70;99.90;;;;;;5095024;28;20024;-65
2022/10/21 06:06:05;;;;;;;65.80;33.20;;;9.30;99.90;;;;;;5085478;28;20048;-65
2022/10/21 06:08:33;;;;;;;85.90;33.08;;;9.80;99.90;;;;;;5075368;28;20032;-65
2022/10/21 06:11:04;;;;;;;76.57;31.80;;;9.80;99.90;;;;;;5075130;28;20037;-65
2022/10/21 06:13:31;;;;;;;76.57;32.60;;;9.80;99.90;;;;;;5073649;28;20493;-65
2022/10/21 06:15:58;;;;;;;86.53;33.08;;;9.50;99.90;;;;;;5069801;28;20165;-65
2022/10/21 06:18:25;;;;;;;94.05;37.97;;;9.50;99.90;;;;;;5061997;28;20511;-65
2022/10/21 06:20:51;;;;;;;98.82;39.70;;;9.50;99.90;;;;;;5072691;28;20512;-65
2022/10/21 06:23:18;;;;;;;103.60;42.25;;;9.60;99.90;;;;;;5074173;28;20044;-65
2022/10/21 06:25:58;;;;;;;117.95;43.20;;;9.50;99.90;;;;;;5073379;28;20028;-65
2022/10/21 06:28:25;;;;;;;147.40;44.95;;;9.70;99.90;;;;;;5072591;28;20021;-65
2022/10/21 06:30:51;;;;;;;106.82;43.53;;;10.00;99.90;;;;;;5074714;28;20547;-65
2022/10/21 06:33:17;;;;;;;107.35;44.97;;;10.20;99.90;;;;;;5074930;28;20028;-65
2022/10/21 06:35:43;;;;;;;102.45;45.60;;;10.30;99.20;;;;;;5074905;28;20359;-65
2022/10/21 06:38:09;;;;;;;98.07;44.40;;;10.50;98.10;;;;;;5070783;28;20051;-65
2022/10/21 06:40:35;;;;;;;114.22;46.58;;;10.70;97.30;;;;;;5074866;28;20025;-65
2022/10/21 06:43:00;;;;;;;104.03;43.45;;;10.80;97.30;;;;;;5073102;28;20036;-65
2022/10/21 06:45:27;;;;;;;98.15;44.85;;;11.00;97.40;;;;;;5069044;28;20024;-65
2022/10/21 06:47:52;;;;;;;90.80;42.42;;;11.10;96.20;;;;;;5074534;28;20028;-65
2022/10/21 06:50:19;;;;;;;103.72;43.83;;;11.20;97.40;;;;;;5074447;28;20122;-65
2022/10/21 06:52:47;;;;;;;99.53;43.83;;;11.50;97.30;;;;;;5074950;28;20098;-65
2022/10/21 06:55:13;;;;;;;112.07;43.33;;;11.90;96.80;;;;;;5073898;28;20031;-65
2022/10/21 06:57:39;;;;;;;107.85;42.42;;;12.40;93.90;;;;;;5070908;28;20482;-65
2022/10/21 07:00:06;;;;;;;92.35;43.22;;;12.70;92.60;;;;;;5068868;28;20032;-65
2022/10/21 07:02:32;;;;;;;104.72;43.80;;;12.80;91.10;;;;;;5063124;28;20025;-65
2022/10/21 07:04:58;;;;;;;99.35;42.33;;;12.60;91.40;;;;;;5056432;28;20081;-65
2022/10/21 07:07:24;;;;;;;87.32;42.92;;;13.20;90.90;;;;;;5095224;28;20489;-65
2022/10/21 07:09:50;;;;;;;110.05;48.38;;;13.00;89.20;;;;;;5086442;28;20034;-65
2022/10/21 07:12:17;;;;;;;91.88;40.80;;;13.40;88.70;;;;;;5094818;28;20028;-65
2022/10/21 07:14:42;;;;;;;102.88;43.85;;;13.40;86.80;;;;;;5094932;28;20488;-65
2022/10/21 07:17:08;;;;;;;98.07;42.60;;;13.50;86.10;;;;;;5092375;28;20024;-65
2022/10/21 07:19:47;;;;;;;96.63;44.22;;;12.80;88.60;;;;;;5093780;28;20028;-65
2022/10/21 07:22:14;;;;;;;108.93;48.72;;;13.20;90.30;;;;;;5070966;28;20172;-65
2022/10/21 07:24:40;;;;;;;108.10;50.03;;;13.10;90.60;;;;;;5094918;28;20455;-65
2022/10/21 07:27:06;;;;;;;96.70;45.97;;;13.20;89.30;;;;;;5094811;28;20043;-65
2022/10/21 07:29:48;;;;;;;81.55;42.45;;;13.10;90.00;;;;;;5074707;28;20048;-65
2022/10/21 07:32:17;;;;;;;65.63;34.63;;;12.90;91.70;;;;;;5093640;28;20036;-65
2022/10/21 07:34:48;;;;;;;53.13;31.75;;;13.90;91.60;;;;;;5094704;28;20106;-65
2022/10/21 07:37:19;;;;;;;68.63;36.30;;;13.90;90.10;;;;;;5094642;28;20039;-64
2022/10/21 07:39:45;;;;;;;70.32;36.90;;;13.80;90.00;;;;;;5092055;28;20059;-65
2022/10/21 07:42:15;;;;;;;68.68;36.20;;;13.70;90.60;;;;;;5094329;28;20028;-65
2022/10/21 07:44:40;;;;;;;65.45;35.78;;;14.10;90.70;;;;;;5094498;28;20035;-65
2022/10/21 07:47:06;;;;;;;63.88;35.45;;;14.30;88.70;;;;;;5094237;28;20055;-65
2022/10/21 07:49:32;;;;;;;61.03;32.63;;;13.80;90.00;;;;;;5095068;28;20032;-65
2022/10/21 07:51:58;;;;;;;76.68;33.40;;;14.20;91.10;;;;;;5093722;28;20031;-65
2022/10/21 07:54:24;;;;;;;69.60;32.72;;;14.60;89.20;;;;;;5093930;28;20131;-65
2022/10/21 07:56:51;;;;;;;61.35;31.25;;;15.10;87.10;;;;;;5094054;28;20078;-65
2022/10/21 07:59:18;;;;;;;51.33;29.92;;;15.50;85.00;;;;;;5093852;28;20028;-65
2022/10/21 08:01:46;;;;;;;60.50;30.73;;;15.40;83.80;;;;;;5094396;28;20085;-65
2022/10/21 08:04:18;;;;;;;53.15;29.70;;;16.20;82.20;;;;;;5093404;28;20584;-65
2022/10/21 08:06:46;;;;;;;53.38;29.65;;;16.90;79.30;;;;;;5085086;28;20090;-65
2022/10/21 08:09:12;;;;;;;82.13;35.05;;;17.10;75.10;;;;;;5079179;28;20562;-65
2022/10/21 08:11:38;;;;;;;53.78;30.88;;;17.10;76.40;;;;;;5076482;28;20032;-65
2022/10/21 08:14:08;;;;;;;51.03;29.42;;;17.60;74.00;;;;;;5085470;28;20036;-65
2022/10/21 08:16:35;;;;;;;51.95;30.70;;;17.70;71.50;;;;;;5074388;28;20028;-65
2022/10/21 08:19:02;;;;;;;50.25;31.73;;;17.60;72.10;;;;;;5076137;28;20036;-65
2022/10/21 08:21:30;;;;;;;52.78;31.80;;;18.00;70.60;;;;;;5094641;28;20034;-65
2022/10/21 08:23:56;;;;;;;47.03;29.65;;;17.90;70.30;;;;;;5093605;28;20509;-65
2022/10/21 08:26:23;;;;;;;59.30;31.05;;;17.60;69.80;;;;;;5093216;28;20043;-65
2022/10/21 08:28:48;;;;;;;40.95;27.45;;;18.00;68.00;;;;;;5085751;28;20060;-64
2022/10/21 08:31:17;;;;;;;42.60;24.77;;;18.30;66.80;;;;;;5079069;28;20052;-65
2022/10/21 08:33:44;;;;;;;45.75;27.08;;;18.40;66.50;;;;;;5053390;28;20024;-64
2022/10/21 08:36:17;;;;;;;39.10;24.92;;;18.90;66.80;;;;;;5052800;28;20101;-64
2022/10/21 08:38:43;;;;;;;38.80;24.73;;;18.90;65.00;;;;;;5060084;28;20028;-64
2022/10/21 08:41:29;;;;;;;39.30;24.58;;;19.20;64.40;;;;;;5078272;28;20040;-64
2022/10/21 08:44:05;;;;;;;46.47;25.83;;;19.50;63.40;;;;;;5075835;28;20072;-63
2022/10/21 08:46:37;;;;;;;48.65;27.73;;;20.40;62.20;;;;;;5056990;28;20104;-63
2022/10/21 08:49:18;;;;;;;44.45;25.27;;;20.60;60.50;;;;;;5057017;28;20537;-63
2022/10/21 08:52:06;;;;;;;40.17;25.65;;;20.60;59.00;;;;;;5056730;28;20060;-64
2022/10/21 08:54:47;;;;;;;44.72;26.88;;;20.80;58.20;;;;;;5056895;28;20463;-64
2022/10/21 08:57:13;;;;;;;;;;;20.70;58.70;;;;;;5057179;28;20154;-64
2022/10/21 08:59:41;;;;;;;37.72;22.45;;;20.90;57.50;;;;;;5056308;28;19917;-64
2022/10/21 09:02:19;;;;;;;33.13;20.50;;;21.00;58.20;;;;;;5057216;28;20029;-64
2022/10/21 09:05:16;;;;;;;43.00;21.80;;;21.20;55.50;;;;;;5087160;28;20033;-64
2022/10/21 09:07:54;;;;;;;42.40;23.50;;;21.80;55.30;;;;;;5058920;28;20048;-64
2022/10/21 09:10:41;;;;;;;35.65;22.35;;;22.20;54.80;;;;;;5064087;28;20624;-64
2022/10/21 09:13:30;;;;;;;34.33;21.60;;;22.60;53.50;;;;;;5076559;28;20031;-64
2022/10/21 09:16:07;;;;;;;40.33;21.10;;;22.70;52.40;;;;;;5073986;28;20047;-64
2022/10/21 09:18:54;;;;;;;36.25;20.63;;;22.90;51.30;;;;;;5076125;28;20028;-64
2022/10/21 09:21:35;;;;;;;34.63;19.13;;;23.40;50.20;;;;;;5056147;28;20025;-64
2022/10/21 09:24:12;;;;;;;40.88;21.10;;;23.20;49.50;;;;;;5058864;28;20033;-64
2022/10/21 09:26:44;;;;;;;29.90;19.25;;;22.80;51.50;;;;;;5075867;28;20102;-64
2022/10/21 09:29:27;;;;;;;31.58;19.88;;;22.20;50.30;;;;;;5076200;28;20033;-64
2022/10/21 09:31:59;;;;;;;29.00;17.10;;;22.40;50.70;;;;;;5074883;28;20025;-64
2022/10/21 09:34:49;;;;;;;27.05;17.10;;;23.20;48.60;;;;;;5072813;28;20032;-64
2022/10/21 09:37:38;;;;;;;33.47;17.15;;;23.60;48.70;;;;;;5075875;28;20041;-64
2022/10/21 09:40:18;;;;;;;24.85;16.17;;;24.20;47.50;;;;;;5074296;28;20027;-64
2022/10/21 09:42:45;;;;;;;33.60;15.13;;;24.10;45.10;;;;;;5074807;28;20020;-64
2022/10/21 09:45:22;;;;;;;26.50;14.82;;;24.60;44.80;;;;;;5074129;28;20117;-64
2022/10/21 09:47:56;;;;;;;24.33;16.08;;;25.00;44.20;;;;;;5056025;28;20025;-64
2022/10/21 09:50:22;;;;;;;28.45;17.13;;;25.00;43.20;;;;;;5072231;28;20486;-64
2022/10/21 09:52:55;;;;;;;37.78;18.92;;;25.00;43.60;;;;;;5073194;28;20029;-64
2022/10/21 09:55:22;;;;;;;30.83;17.63;;;24.50;44.60;;;;;;5075452;28;20545;-64
2022/10/21 09:57:57;;;;;;;35.80;18.65;;;24.70;44.70;;;;;;5071959;28;20029;-64
2022/10/21 10:00:44;;;;;;;31.02;17.02;;;24.40;45.60;;;;;;5075297;28;20063;-64
2022/10/21 10:03:10;;;;;;;24.67;15.02;;;24.90;44.70;;;;;;5072213;28;20037;-64
2022/10/21 10:05:48;;;;;;;28.20;17.60;;;25.20;45.00;;;;;;5070275;28;20060;-64
2022/10/21 10:08:31;;;;;;;32.60;17.77;;;25.60;44.80;;;;;;5089410;28;20035;-64
2022/10/21 10:11:22;;;;;;;24.27;16.08;;;24.90;43.40;;;;;;5083516;28;20085;-64
2022/10/21 10:13:50;;;;;;;27.67;17.73;;;25.20;43.60;;;;;;5087311;28;20016;-64
2022/10/21 10:16:30;;;;;;;29.95;18.50;;;24.30;45.70;;;;;;5095672;28;20081;-64
2022/10/21 10:19:17;;;;;;;31.00;19.63;;;24.80;45.70;;;;;;5095608;28;20031;-64
2022/10/21 10:21:44;;;;;;;28.25;17.83;;;24.90;45.00;;;;;;5094639;28;20275;-64
2022/10/21 10:24:20;;;;;;;29.02;16.65;;;24.30;44.80;;;;;;5094990;28;20091;-64
2022/10/21 10:26:47;;;;;;;30.40;17.35;;;24.70;45.90;;;;;;5094455;28;20027;-64
2022/10/21 10:29:26;;;;;;;29.77;17.10;;;25.00;44.20;;;;;;5094487;28;20497;-63
2022/10/21 10:31:56;;;;;;;21.05;15.27;;;25.00;44.70;;;;;;5094086;28;20551;-64
2022/10/21 10:34:33;;;;;;;24.38;15.40;;;25.70;44.20;;;;;;5088670;28;20346;-64
2022/10/21 10:37:24;;;;;;;34.80;15.68;;;25.60;43.30;;;;;;5086050;28;20031;-64
2022/10/21 10:39:54;;;;;;;;;;;25.90;43.80;;;;;;5094693;28;20055;-64
2022/10/21 10:42:23;;;;;;;31.70;14.97;;;26.30;42.30;;;;;;5094246;28;19908;-64
2022/10/21 10:44:56;;;;;;;28.48;14.60;;;26.20;41.90;;;;;;5093217;28;20085;-63
2022/10/21 10:47:27;;;;;;;36.28;16.20;;;25.60;42.70;;;;;;5080065;28;20025;-63
2022/10/21 10:49:53;;;;;;;31.40;15.13;;;25.40;43.10;;;;;;5092304;28;20129;-64
2022/10/21 10:52:23;;;;;;;26.73;14.30;;;25.50;43.00;;;;;;5093893;28;20048;-63
2022/10/21 10:55:10;;;;;;;25.53;13.17;;;24.80;43.10;;;;;;5082451;28;20066;-63
2022/10/21 10:57:40;;;;;;;38.35;15.95;;;25.10;42.90;;;;;;5087829;28;20031;-63
2022/10/21 11:00:21;;;;;;;20.20;12.35;;;24.70;43.30;;;;;;5095529;28;20059;-64
2022/10/21 11:03:04;;;;;;;21.52;12.77;;;24.70;44.10;;;;;;5094346;28;20032;-63
2022/10/21 11:05:43;;;;;;;17.60;13.00;;;24.60;43.60;;;;;;5089888;28;20056;-64
2022/10/21 11:08:22;;;;;;;25.38;13.85;;;24.00;44.10;;;;;;5073861;28;20092;-63
2022/10/21 11:11:00;;;;;;;28.50;13.63;;;24.30;45.50;;;;;;5074253;28;20027;-63
2022/10/21 11:13:27;;;;;;;29.42;15.32;;;24.80;43.70;;;;;;5074222;28;20445;-63
2022/10/21 11:16:14;;;;;;;25.83;14.55;;;24.90;44.60;;;;;;5073546;28;20025;-64
2022/10/21 11:19:10;;;;;;;21.05;13.65;;;25.30;44.00;;;;;;5061714;28;20063;-64
2022/10/21 11:21:45;;;;;;;26.70;15.45;;;25.30;43.90;;;;;;5053978;28;20037;-64
2022/10/21 11:24:36;;;;;;;22.73;13.13;;;25.00;45.80;;;;;;5056961;28;20478;-64
2022/10/21 11:27:24;;;;;;;;;;;25.30;43.00;;;;;;5065991;28;20029;-64
2022/10/21 11:30:05;;;;;;;29.80;14.95;;;25.40;42.90;;;;;;5067283;28;20320;-64
2022/10/21 11:32:49;;;;;;;26.55;15.55;;;25.40;43.60;;;;;;5073950;28;20116;-63
2022/10/21 11:35:53;;;;;;;31.30;16.02;;;25.40;42.40;;;;;;5061755;28;20028;-63
2022/10/21 11:39:01;;;;;;;31.48;16.63;;;25.20;42.40;;;;;;5067399;28;20025;-63
2022/10/21 11:41:55;;;;;;;29.15;16.05;;;25.20;41.80;;;;;;5052778;28;20175;-63
2022/10/21 11:44:24;;;;;;;34.08;17.67;;;25.00;42.00;;;;;;5065249;28;20531;-63
2022/10/21 11:47:28;;;;;;;35.80;17.92;;;24.60;42.70;;;;;;5073544;28;20064;-64
2022/10/21 11:50:14;;;;;;;38.72;19.27;;;24.50;42.80;;;;;;5034396;28;20033;-63
2022/10/21 11:53:11;;;;;;;38.33;19.85;;;24.40;43.60;;;;;;5069739;28;20063;-63
2022/10/21 11:55:47;;;;;;;45.20;22.48;;;23.80;44.00;;;;;;5065660;28;20028;-64
2022/10/21 11:58:18;;;;;;;33.83;20.30;;;23.80;46.10;;;;;;5061866;28;20024;-63
2022/10/21 12:00:54;;;;;;;45.30;20.85;;;23.90;45.20;;;;;;5073503;28;20028;-63
2022/10/21 12:03:41;;;;;;;37.08;18.85;;;24.00;46.00;;;;;;5074213;28;20688;-63
2022/10/21 12:06:28;;;;;;;30.10;16.92;;;23.90;44.90;;;;;;5073182;28;20043;-63
2022/10/21 12:09:04;;;;;;;29.60;16.55;;;23.80;45.70;;;;;;5073303;28;20542;-64
2022/10/21 12:11:40;;;;;;;32.20;16.77;;;23.60;46.30;;;;;;5064881;28;20040;-64
2022/10/21 12:14:31;;;;;;;39.60;17.80;;;23.40;47.70;;;;;;5068781;28;20029;-64
2022/10/21 12:17:00;;;;;;;58.20;21.30;;;23.30;47.70;;;;;;5070634;28;20386;-64
2022/10/21 12:19:26;;;;;;;31.33;17.95;;;23.20;47.90;;;;;;5071817;28;20033;-64
2022/10/21 12:21:52;;;;;;;33.20;16.38;;;23.10;48.30;;;;;;5047635;28;20031;-63
2022/10/21 12:24:46;;;;;;;40.03;16.73;;;23.10;47.40;;;;;;5067028;28;20028;-64
2022/10/21 12:27:21;;;;;;;26.67;15.07;;;23.00;48.90;;;;;;5066002;28;20037;-64
2022/10/21 12:29:55;;;;;;;34.45;16.05;;;23.10;49.20;;;;;;5075190;28;20025;-63
2022/10/21 12:32:41;;;;;;;46.35;16.70;;;22.90;47.90;;;;;;5054451;28;20290;-64
2022/10/21 12:35:19;;;;;;;42.20;16.13;;;22.90;48.70;;;;;;5072761;28;20436;-63
2022/10/21 12:37:51;;;;;;;37.95;15.65;;;22.90;48.70;;;;;;5072295;28;20027;-63
2022/10/21 12:40:26;;;;;;;35.22;15.77;;;23.00;49.60;;;;;;5071808;28;20579;-63
2022/10/21 12:43:00;;;;;;;44.97;17.63;;;22.90;49.60;;;;;;5060889;28;20021;-63
2022/10/21 12:45:29;;;;;;;38.83;16.58;;;22.80;48.90;;;;;;5066647;28;20555;-63
2022/10/21 12:47:55;;;;;;;27.33;14.40;;;22.80;49.30;;;;;;5062106;28;20024;-63
2022/10/21 12:50:32;;;;;;;31.67;14.38;;;22.60;49.20;;;;;;5068398;28;20032;-63
2022/10/21 12:53:30;;;;;;;29.48;13.40;;;22.50;49.90;;;;;;5075484;28;20036;-63